createdAt,value
2019-02-17T00:00:11.418Z,19.97
2019-02-17T00:02:19.410Z,20.87
2019-02-17T00:04:27.168Z,20.53
2019-02-17T00:06:34.871Z,20.13
2019-02-17T00:08:42.600Z,19.80
2019-02-17T00:10:50.209Z,20.07
2019-02-17T00:12:57.937Z,18.90
2019-02-17T00:15:05.935Z,19.20
2019-02-17T00:17:13.678Z,19.57
2019-02-17T00:19:21.323Z,20.17
2019-02-17T00:21:29.195Z,19.33
2019-02-17T00:23:37.020Z,20.03
2019-02-17T00:25:44.691Z,19.13
2019-02-17T00:27:52.529Z,18.63
2019-02-17T00:30:00.322Z,21.67
2019-02-17T00:32:07.985Z,19.40
2019-02-17T00:34:15.761Z,18.27
2019-02-17T00:36:23.564Z,19.20
2019-02-17T00:38:31.478Z,18.67
2019-02-17T00:40:39.272Z,19.63
2019-02-17T00:42:47.343Z,19.23
2019-02-17T00:44:55.195Z,18.37
2019-02-17T00:47:02.887Z,17.83
2019-02-17T00:49:10.652Z,18.57
2019-02-17T00:51:18.303Z,19.13
2019-02-17T00:53:26.042Z,18.73
2019-02-17T00:55:33.818Z,19.80
2019-02-17T00:57:41.470Z,19.30
2019-02-17T00:59:49.148Z,19.33
2019-02-17T01:01:56.862Z,19.53
2019-02-17T01:04:04.687Z,19.77
2019-02-17T01:06:12.486Z,18.97
2019-02-17T01:08:20.245Z,20.97
2019-02-17T01:10:27.918Z,22.33
2019-02-17T01:12:35.692Z,21.03
2019-02-17T01:14:43.651Z,21.43
2019-02-17T01:16:51.526Z,19.77
2019-02-17T01:18:59.216Z,20.50
2019-02-17T01:21:06.831Z,21.40
2019-02-17T01:23:14.493Z,23.73
2019-02-17T01:25:22.300Z,24.70
2019-02-17T01:27:30.065Z,22.90
2019-02-17T01:29:37.693Z,19.50
2019-02-17T01:31:45.394Z,19.80
2019-02-17T01:33:53.105Z,21.37
2019-02-17T01:36:00.922Z,18.93
2019-02-17T01:38:08.516Z,19.97
2019-02-17T01:40:16.026Z,19.37
2019-02-17T01:42:23.865Z,18.97
2019-02-17T01:44:31.628Z,20.47
2019-02-17T01:46:39.350Z,20.33
2019-02-17T01:48:47.022Z,19.50
2019-02-17T01:50:54.854Z,20.07
2019-02-17T01:53:02.301Z,18.97
2019-02-17T01:55:10.154Z,19.63
2019-02-17T01:57:17.698Z,19.27
2019-02-17T01:59:30.548Z,19.00
2019-02-17T02:01:34.974Z,20.60
2019-02-17T02:03:42.624Z,18.27
2019-02-17T02:05:50.222Z,20.93
2019-02-17T02:07:57.840Z,18.50
2019-02-17T02:10:06.148Z,20.03
2019-02-17T02:12:13.924Z,19.97
2019-02-17T02:14:21.554Z,18.63
2019-02-17T02:16:29.333Z,19.00
2019-02-17T02:18:36.989Z,19.73
2019-02-17T02:20:44.720Z,18.37
2019-02-17T02:22:52.384Z,19.97
2019-02-17T02:25:00.221Z,19.47
2019-02-17T02:27:07.906Z,20.07
2019-02-17T02:29:15.567Z,19.37
2019-02-17T02:31:23.426Z,20.37
2019-02-17T02:33:31.167Z,19.70
2019-02-17T02:35:39.187Z,19.47
2019-02-17T02:37:46.927Z,19.77
2019-02-17T02:39:54.628Z,20.20
2019-02-17T02:42:02.499Z,20.47
2019-02-17T02:44:10.246Z,19.77
2019-02-17T02:46:18.050Z,19.87
2019-02-17T02:48:25.984Z,20.23
2019-02-17T02:50:33.724Z,20.53
2019-02-17T02:52:41.437Z,20.10
2019-02-17T02:54:49.167Z,21.20
2019-02-17T02:56:56.887Z,20.03
2019-02-17T02:59:04.684Z,20.03
2019-02-17T03:01:12.752Z,21.73
2019-02-17T03:03:20.533Z,20.47
2019-02-17T03:05:28.051Z,20.30
2019-02-17T03:07:35.623Z,20.43
2019-02-17T03:09:43.210Z,21.00
2019-02-17T03:11:50.931Z,20.17
2019-02-17T03:13:58.660Z,20.97
2019-02-17T03:16:06.519Z,21.80
2019-02-17T03:18:14.137Z,20.77
2019-02-17T03:20:21.496Z,20.90
2019-02-17T03:22:29.222Z,21.10
2019-02-17T03:24:36.846Z,20.87
2019-02-17T03:26:44.686Z,19.80
2019-02-17T03:28:52.322Z,20.40
2019-02-17T03:31:00.085Z,19.23
2019-02-17T03:33:07.882Z,21.30
2019-02-17T03:35:15.708Z,19.97
2019-02-17T03:37:23.081Z,20.03
2019-02-17T03:39:30.623Z,20.50
2019-02-17T03:41:38.472Z,20.40
2019-02-17T03:43:46.388Z,20.87
2019-02-17T03:45:54.079Z,20.00
2019-02-17T03:48:01.855Z,19.40
2019-02-17T03:50:09.531Z,19.40
2019-02-17T03:52:17.317Z,22.20
2019-02-17T03:54:24.967Z,20.90
2019-02-17T03:56:32.649Z,20.20
2019-02-17T03:58:40.329Z,20.03
2019-02-17T04:00:47.960Z,20.03
2019-02-17T04:02:55.617Z,19.83
2019-02-17T04:05:03.507Z,19.73
2019-02-17T04:07:11.027Z,20.93
2019-02-17T04:09:18.715Z,20.67
2019-02-17T04:11:26.557Z,20.03
2019-02-17T04:13:34.485Z,21.17
2019-02-17T04:15:42.117Z,19.87
2019-02-17T04:17:49.782Z,21.03
2019-02-17T04:19:57.505Z,20.67
2019-02-17T04:22:05.160Z,20.10
2019-02-17T04:24:12.854Z,19.27
2019-02-17T04:26:20.393Z,20.00
2019-02-17T04:28:28.183Z,21.90
2019-02-17T04:30:35.783Z,20.90
2019-02-17T04:32:43.475Z,22.43
2019-02-17T04:34:51.219Z,21.37
2019-02-17T04:36:58.832Z,21.00
2019-02-17T04:39:07.687Z,19.80
2019-02-17T04:41:15.484Z,21.17
2019-02-17T04:43:23.305Z,19.60
2019-02-17T04:45:30.884Z,20.63
2019-02-17T04:47:38.552Z,20.03
2019-02-17T04:49:46.364Z,20.53
2019-02-17T04:51:54.099Z,19.60
2019-02-17T04:54:01.732Z,20.90
2019-02-17T04:56:09.429Z,20.30
2019-02-17T04:58:17.005Z,20.03
2019-02-17T05:00:24.643Z,21.77
2019-02-17T05:02:32.249Z,19.73
2019-02-17T05:04:39.983Z,20.87
2019-02-17T05:06:47.867Z,19.40
2019-02-17T05:08:55.530Z,21.00
2019-02-17T05:11:03.071Z,19.90
2019-02-17T05:13:10.751Z,20.17
2019-02-17T05:15:18.494Z,20.60
2019-02-17T05:17:26.204Z,20.40
2019-02-17T05:19:33.872Z,22.27
2019-02-17T05:21:41.453Z,22.83
2019-02-17T05:23:49.135Z,20.77
2019-02-17T05:25:56.587Z,20.47
2019-02-17T05:28:04.212Z,20.70
2019-02-17T05:30:12.119Z,21.03
2019-02-17T05:32:19.617Z,20.13
2019-02-17T05:34:27.356Z,20.07
2019-02-17T05:36:35.110Z,21.60
2019-02-17T05:38:42.786Z,20.57
2019-02-17T05:40:50.434Z,21.20
2019-02-17T05:42:58.259Z,20.60
2019-02-17T05:45:07.433Z,20.47
2019-02-17T05:47:14.944Z,19.63
2019-02-17T05:49:22.610Z,21.03
2019-02-17T05:51:30.361Z,20.33
2019-02-17T05:53:37.917Z,21.77
2019-02-17T05:55:45.618Z,21.97
2019-02-17T05:57:53.293Z,21.67
2019-02-17T06:00:01.001Z,22.07
2019-02-17T06:02:08.695Z,20.20
2019-02-17T06:04:16.361Z,20.63
2019-02-17T06:06:24.103Z,21.67
2019-02-17T06:08:32.275Z,20.33
2019-02-17T06:10:40.066Z,21.87
2019-02-17T06:12:47.850Z,21.33
2019-02-17T06:14:55.744Z,22.90
2019-02-17T06:17:03.571Z,21.33
2019-02-17T06:19:11.286Z,20.90
2019-02-17T06:21:18.960Z,20.60
2019-02-17T06:23:26.686Z,21.40
2019-02-17T06:25:34.539Z,21.57
2019-02-17T06:27:42.308Z,21.23
2019-02-17T06:29:49.968Z,20.77
2019-02-17T06:31:57.637Z,22.30
2019-02-17T06:34:05.329Z,22.27
2019-02-17T06:36:13.139Z,20.80
2019-02-17T06:38:20.989Z,23.43
2019-02-17T06:40:28.711Z,23.33
2019-02-17T06:42:36.447Z,21.07
2019-02-17T06:44:44.156Z,22.63
2019-02-17T06:46:56.228Z,22.77
2019-02-17T06:49:04.025Z,20.77
2019-02-17T06:51:11.893Z,24.03
2019-02-17T06:53:19.590Z,21.77
2019-02-17T06:55:42.061Z,23.07
2019-02-17T06:57:49.767Z,21.50
2019-02-17T07:00:12.236Z,24.47
2019-02-17T07:02:19.971Z,23.73
2019-02-17T07:04:49.757Z,23.17
2019-02-17T07:07:01.353Z,25.73
2019-02-17T07:09:09.634Z,26.13
2019-02-17T07:11:17.626Z,26.47
2019-02-17T07:13:25.270Z,26.47
2019-02-17T07:15:32.976Z,25.73
2019-02-17T07:17:40.774Z,25.27
2019-02-17T07:19:48.484Z,23.63
2019-02-17T07:21:56.402Z,22.97
2019-02-17T07:24:04.256Z,24.67
2019-02-17T07:26:12.295Z,23.27
2019-02-17T07:28:19.901Z,23.20
2019-02-17T07:30:27.635Z,25.03
2019-02-17T07:32:35.510Z,23.33
2019-02-17T07:34:43.371Z,24.07
2019-02-17T07:36:51.080Z,23.77
2019-02-17T07:38:58.743Z,24.07
2019-02-17T07:41:06.572Z,24.07
2019-02-17T07:43:14.404Z,25.13
2019-02-17T07:45:22.339Z,24.23
2019-02-17T07:47:30.155Z,23.17
2019-02-17T07:49:37.944Z,25.20
2019-02-17T07:51:45.669Z,24.73
2019-02-17T07:53:53.499Z,25.00
2019-02-17T07:56:01.172Z,27.67
2019-02-17T07:58:08.917Z,26.23
2019-02-17T08:00:16.814Z,23.93
2019-02-17T08:02:24.441Z,24.77
2019-02-17T08:04:32.138Z,25.70
2019-02-17T08:06:39.915Z,27.90
2019-02-17T08:08:47.739Z,28.60
2019-02-17T08:11:03.669Z,27.97
2019-02-17T08:13:06.120Z,26.40
2019-02-17T08:15:13.880Z,37.43
2019-02-17T08:17:21.721Z,32.67
2019-02-17T08:19:29.733Z,28.00
2019-02-17T08:21:37.651Z,30.10
2019-02-17T08:23:45.444Z,28.17
2019-02-17T08:25:53.233Z,26.27
2019-02-17T08:28:01.173Z,27.03
2019-02-17T08:30:10.410Z,26.63
2019-02-17T08:32:18.252Z,25.67
2019-02-17T08:34:25.963Z,27.13
2019-02-17T08:36:34.194Z,27.87
2019-02-17T08:38:42.284Z,25.60
2019-02-17T08:40:50.028Z,24.70
2019-02-17T08:42:57.998Z,24.63
2019-02-17T08:45:06.137Z,27.17
2019-02-17T08:47:13.933Z,27.93
2019-02-17T08:49:21.694Z,27.17
2019-02-17T08:51:29.349Z,29.93
2019-02-17T08:53:37.090Z,37.33
2019-02-17T08:55:44.918Z,42.03
2019-02-17T08:57:52.749Z,46.30
2019-02-17T09:00:00.557Z,38.70
2019-02-17T09:02:08.413Z,41.23
2019-02-17T09:04:16.404Z,33.37
2019-02-17T09:06:24.243Z,33.77
2019-02-17T09:08:32.010Z,35.10
2019-02-17T09:10:40.102Z,35.37
2019-02-17T09:12:47.891Z,32.57
2019-02-17T09:14:55.747Z,32.00
2019-02-17T09:17:03.665Z,31.53
2019-02-17T09:19:11.785Z,30.10
2019-02-17T09:21:19.671Z,28.10
2019-02-17T09:23:27.429Z,30.57
2019-02-17T09:25:35.228Z,35.83
2019-02-17T09:27:43.299Z,32.07
2019-02-17T09:29:51.103Z,37.13
2019-02-17T09:31:59.524Z,29.27
2019-02-17T09:34:07.533Z,29.03
2019-02-17T09:36:15.201Z,28.50
2019-02-17T09:38:23.123Z,27.33
2019-02-17T09:40:30.838Z,27.27
2019-02-17T09:42:38.949Z,27.50
2019-02-17T09:44:46.725Z,27.37
2019-02-17T09:46:54.515Z,29.80
2019-02-17T09:49:02.660Z,28.90
2019-02-17T09:51:10.455Z,29.30
2019-02-17T09:53:19.020Z,27.60
2019-02-17T09:55:27.030Z,30.83
2019-02-17T09:57:35.220Z,30.30
2019-02-17T09:59:43.195Z,27.97
2019-02-17T10:01:51.560Z,26.73
2019-02-17T10:03:59.272Z,29.70
2019-02-17T10:06:07.097Z,29.37
2019-02-17T10:08:15.067Z,29.40
2019-02-17T10:10:24.033Z,28.27
2019-02-17T10:12:32.337Z,31.03
2019-02-17T10:14:40.720Z,29.53
2019-02-17T10:16:49.691Z,30.30
2019-02-17T10:18:57.604Z,32.80
2019-02-17T10:21:05.334Z,31.20
2019-02-17T10:23:13.697Z,31.43
2019-02-17T10:25:22.300Z,31.50
2019-02-17T10:27:30.229Z,32.53
2019-02-17T10:29:37.948Z,33.60
2019-02-17T10:31:45.653Z,31.83
2019-02-17T10:33:53.630Z,30.43
2019-02-17T10:36:01.744Z,31.33
2019-02-17T10:38:09.590Z,29.90
2019-02-17T10:40:17.639Z,30.97
2019-02-17T10:42:25.631Z,49.00
2019-02-17T10:44:33.517Z,67.97
2019-02-17T10:46:41.477Z,55.73
2019-02-17T10:48:49.049Z,59.13
2019-02-17T10:50:56.975Z,42.00
2019-02-17T10:53:05.426Z,38.03
2019-02-17T10:55:14.158Z,36.43
2019-02-17T10:57:21.861Z,34.83
2019-02-17T10:59:29.438Z,32.13
2019-02-17T11:01:37.679Z,69.30
2019-02-17T11:04:11.994Z,40.33
2019-02-17T11:06:19.687Z,37.90
2019-02-17T11:08:27.378Z,31.53
2019-02-17T11:10:35.213Z,25.33
2019-02-17T11:12:43.251Z,30.43
2019-02-17T11:14:51.097Z,17.13
2019-02-17T11:16:59.111Z,16.33
2019-02-17T11:19:07.120Z,19.47
2019-02-17T11:21:15.126Z,16.93
2019-02-17T11:23:22.950Z,16.50
2019-02-17T11:25:31.089Z,14.90
2019-02-17T11:27:39.145Z,14.77
2019-02-17T11:29:46.780Z,30.20
2019-02-17T11:31:54.860Z,17.03
2019-02-17T11:34:02.867Z,16.83
2019-02-17T11:36:10.944Z,18.10
2019-02-17T11:38:18.856Z,16.93
2019-02-17T11:40:26.900Z,14.57
2019-02-17T11:42:34.839Z,16.27
2019-02-17T11:44:42.609Z,26.40
2019-02-17T11:46:50.636Z,17.70
2019-02-17T11:48:58.901Z,16.10
2019-02-17T11:51:07.611Z,16.70
2019-02-17T11:53:15.822Z,13.23
2019-02-17T11:55:23.927Z,14.53
2019-02-17T11:57:31.862Z,13.93
2019-02-17T11:59:40.220Z,12.77
2019-02-17T12:01:48.369Z,13.87
2019-02-17T12:03:57.238Z,13.40
2019-02-17T12:06:05.193Z,18.77
2019-02-17T12:08:13.205Z,13.77
2019-02-17T12:10:21.193Z,13.87
2019-02-17T12:12:29.109Z,12.23
2019-02-17T12:14:37.251Z,11.90
2019-02-17T12:16:45.179Z,14.10
2019-02-17T12:18:53.040Z,14.23
2019-02-17T12:21:19.700Z,17.83
2019-02-17T12:23:43.145Z,18.03
2019-02-17T12:26:09.852Z,19.90
2019-02-17T12:28:48.617Z,29.03
2019-02-17T12:30:56.451Z,25.53
2019-02-17T12:33:04.187Z,30.30
2019-02-17T12:35:12.145Z,31.00
2019-02-17T12:37:19.920Z,16.83
2019-02-17T12:39:27.628Z,35.63
2019-02-17T12:41:35.707Z,17.83
2019-02-17T12:43:43.969Z,16.60
2019-02-17T12:45:51.939Z,17.83
2019-02-17T12:47:59.706Z,17.53
2019-02-17T12:50:08.420Z,17.50
2019-02-17T12:52:16.289Z,17.07
2019-02-17T12:54:29.111Z,17.60
2019-02-17T12:56:33.574Z,17.33
2019-02-17T12:58:41.370Z,18.83
2019-02-17T13:00:49.121Z,20.50
2019-02-17T13:02:56.906Z,19.13
2019-02-17T13:05:05.058Z,19.00
2019-02-17T13:07:12.708Z,19.47
2019-02-17T13:09:20.659Z,19.60
2019-02-17T13:11:28.474Z,19.40
2019-02-17T13:13:36.094Z,19.70
2019-02-17T13:15:43.813Z,18.27
2019-02-17T13:17:53.061Z,17.17
2019-02-17T13:20:00.741Z,16.93
2019-02-17T13:22:08.426Z,14.57
2019-02-17T13:24:16.289Z,18.93
2019-02-17T13:26:24.254Z,22.00
2019-02-17T13:28:31.937Z,19.93
2019-02-17T13:30:39.592Z,34.47
2019-02-17T13:32:47.770Z,33.03
2019-02-17T13:34:55.502Z,28.43
2019-02-17T13:37:03.286Z,26.67
2019-02-17T13:39:11.227Z,23.77
2019-02-17T13:41:18.912Z,23.80
2019-02-17T13:43:26.725Z,24.93
2019-02-17T13:45:34.560Z,21.07
2019-02-17T13:47:42.488Z,24.50
2019-02-17T13:49:50.412Z,23.57
2019-02-17T13:51:58.207Z,23.33
2019-02-17T13:54:06.171Z,21.37
2019-02-17T13:56:14.469Z,18.70
2019-02-17T13:58:22.130Z,18.93
2019-02-17T14:00:29.878Z,21.50
2019-02-17T14:02:37.691Z,23.50
2019-02-17T14:04:45.618Z,25.03
2019-02-17T14:06:53.456Z,24.20
2019-02-17T14:09:01.395Z,22.30
2019-02-17T14:11:09.439Z,20.97
2019-02-17T14:13:17.274Z,24.73
2019-02-17T14:15:25.431Z,21.30
2019-02-17T14:17:33.387Z,23.93
2019-02-17T14:19:41.536Z,22.27
2019-02-17T14:21:49.417Z,21.73
2019-02-17T14:23:57.412Z,22.93
2019-02-17T14:26:05.320Z,21.57
2019-02-17T14:28:12.999Z,21.03
2019-02-17T14:30:21.281Z,21.63
2019-02-17T14:32:29.156Z,22.90
2019-02-17T14:34:37.672Z,21.90
2019-02-17T14:36:45.799Z,22.10
2019-02-17T14:38:54.020Z,21.33
2019-02-17T14:41:02.156Z,24.57
2019-02-17T14:43:10.342Z,22.60
2019-02-17T14:45:18.541Z,67.63
2019-02-17T14:47:26.889Z,81.53
2019-02-17T14:49:35.712Z,71.60
2019-02-17T14:51:43.687Z,65.60
2019-02-17T14:53:51.448Z,26.30
2019-02-17T14:55:59.543Z,26.53
2019-02-17T14:58:07.391Z,30.87
2019-02-17T15:00:15.731Z,49.73
2019-02-17T15:02:23.378Z,41.57
2019-02-17T15:04:31.825Z,30.43
2019-02-17T15:06:39.869Z,29.93
2019-02-17T15:08:48.051Z,41.07
2019-02-17T15:10:56.378Z,36.17
2019-02-17T15:13:04.465Z,30.07
2019-02-17T15:15:12.614Z,24.07
2019-02-17T15:17:20.349Z,28.13
2019-02-17T15:19:29.074Z,25.43
2019-02-17T15:21:37.402Z,29.03
2019-02-17T15:23:45.723Z,28.50
2019-02-17T15:25:54.215Z,26.70
2019-02-17T15:28:04.983Z,24.30
2019-02-17T15:30:14.563Z,24.37
2019-02-17T15:32:22.610Z,25.73
2019-02-17T15:34:30.696Z,23.40
2019-02-17T15:36:38.767Z,27.50
2019-02-17T15:38:46.969Z,20.83
2019-02-17T15:40:54.940Z,19.67
2019-02-17T15:43:02.968Z,20.10
2019-02-17T15:45:12.048Z,21.60
2019-02-17T15:47:19.902Z,23.57
2019-02-17T15:49:28.165Z,21.17
2019-02-17T15:51:36.238Z,19.43
2019-02-17T15:53:44.773Z,18.07
2019-02-17T15:55:52.863Z,23.00
2019-02-17T15:58:01.187Z,23.33
2019-02-17T16:00:12.679Z,25.60
2019-02-17T16:02:21.196Z,19.97
2019-02-17T16:04:29.711Z,17.70
2019-02-17T16:06:37.630Z,17.23
2019-02-17T16:08:45.774Z,17.87
2019-02-17T16:10:53.847Z,20.13
2019-02-17T16:13:01.886Z,19.87
2019-02-17T16:15:12.748Z,20.93
2019-02-17T16:17:20.881Z,21.43
2019-02-17T16:19:28.616Z,19.97
2019-02-17T16:21:36.627Z,21.60
2019-02-17T16:23:44.561Z,24.30
2019-02-17T16:25:52.440Z,20.80
2019-02-17T16:28:00.479Z,22.87
2019-02-17T16:30:12.165Z,21.00
2019-02-17T16:32:21.743Z,20.43
2019-02-17T16:34:38.037Z,19.37
2019-02-17T16:36:39.215Z,20.60
2019-02-17T16:38:47.183Z,20.53
2019-02-17T16:40:55.057Z,24.53
2019-02-17T16:43:02.917Z,103.77
2019-02-17T16:45:12.707Z,169.53
2019-02-17T16:47:21.855Z,127.03
2019-02-17T16:49:29.726Z,68.40
2019-02-17T16:51:37.983Z,58.80
2019-02-17T16:53:45.769Z,34.33
2019-02-17T16:55:53.715Z,36.50
2019-02-17T16:58:01.678Z,29.87
2019-02-17T17:00:12.334Z,174.57
2019-02-17T17:02:20.295Z,182.83
2019-02-17T17:04:28.489Z,138.70
2019-02-17T17:06:36.605Z,81.00
2019-02-17T17:08:44.679Z,45.27
2019-02-17T17:10:53.106Z,45.00
2019-02-17T17:13:01.952Z,51.33
2019-02-17T17:15:10.360Z,37.90
2019-02-17T17:17:18.327Z,43.10
2019-02-17T17:19:26.408Z,44.60
2019-02-17T17:21:34.490Z,39.20
2019-02-17T17:23:42.568Z,48.30
2019-02-17T17:25:50.602Z,46.10
2019-02-17T17:27:59.592Z,51.03
2019-02-17T17:30:08.264Z,50.23
2019-02-17T17:32:16.924Z,46.50
2019-02-17T17:34:24.970Z,43.57
2019-02-17T17:36:33.576Z,40.63
2019-02-17T17:38:41.742Z,38.30
2019-02-17T17:40:50.088Z,37.47
2019-02-17T17:42:58.100Z,41.37
2019-02-17T17:45:06.996Z,38.40
2019-02-17T17:47:16.343Z,34.63
2019-02-17T17:49:24.998Z,32.87
2019-02-17T17:51:34.419Z,28.97
2019-02-17T17:53:43.290Z,29.10
2019-02-17T17:55:51.433Z,31.63
2019-02-17T17:57:59.264Z,30.47
2019-02-17T18:00:08.712Z,29.33
2019-02-17T18:02:16.317Z,29.63
2019-02-17T18:04:24.430Z,31.53
2019-02-17T18:06:33.010Z,30.67
2019-02-17T18:08:41.338Z,47.50
2019-02-17T18:10:49.342Z,40.90
2019-02-17T18:12:57.738Z,43.70
2019-02-17T18:15:06.364Z,36.67
2019-02-17T18:17:14.368Z,38.20
2019-02-17T18:19:22.373Z,46.53
2019-02-17T18:21:30.452Z,48.17
2019-02-17T18:23:38.447Z,49.27
2019-02-17T18:25:46.468Z,45.53
2019-02-17T18:27:54.557Z,39.17
2019-02-17T18:30:02.957Z,44.83
2019-02-17T18:32:11.278Z,46.30
2019-02-17T18:34:20.191Z,30.33
2019-02-17T18:36:28.165Z,31.40
2019-02-17T18:38:36.367Z,34.73
2019-02-17T18:40:47.204Z,33.73
2019-02-17T18:42:53.927Z,38.27
2019-02-17T18:45:02.424Z,35.50
2019-02-17T18:47:10.938Z,41.03
2019-02-17T18:49:18.835Z,42.10
2019-02-17T18:51:26.792Z,40.60
2019-02-17T18:53:35.087Z,45.17
2019-02-17T18:55:43.691Z,48.53
2019-02-17T18:57:51.480Z,57.27
2019-02-17T18:59:59.239Z,51.60
2019-02-17T19:02:07.213Z,42.10
2019-02-17T19:04:15.205Z,43.63
2019-02-17T19:06:23.410Z,49.63
2019-02-17T19:08:33.699Z,48.03
2019-02-17T19:10:41.850Z,60.03
2019-02-17T19:12:50.052Z,56.90
2019-02-17T19:14:57.804Z,58.13
2019-02-17T19:17:06.730Z,53.23
2019-02-17T19:19:15.060Z,49.67
2019-02-17T19:21:23.771Z,51.37
2019-02-17T19:23:32.056Z,51.77
2019-02-17T19:25:40.050Z,52.37
2019-02-17T19:27:48.661Z,45.77
2019-02-17T19:29:56.642Z,44.67
2019-02-17T19:32:04.689Z,42.70
2019-02-17T19:34:12.850Z,42.27
2019-02-17T19:36:20.940Z,43.70
2019-02-17T19:38:29.195Z,38.07
2019-02-17T19:40:37.148Z,39.50
2019-02-17T19:42:45.104Z,47.60
2019-02-17T19:44:53.164Z,43.13
2019-02-17T19:47:02.074Z,39.33
2019-02-17T19:49:10.111Z,53.40
2019-02-17T19:51:18.292Z,40.97
2019-02-17T19:53:26.324Z,37.10
2019-02-17T19:55:34.807Z,42.77
2019-02-17T19:57:43.356Z,47.07
2019-02-17T19:59:51.045Z,40.93
2019-02-17T20:01:58.834Z,37.07
2019-02-17T20:04:31.851Z,33.10
2019-02-17T20:06:39.570Z,31.43
2019-02-17T20:08:48.008Z,32.20
2019-02-17T20:10:56.724Z,36.27
2019-02-17T20:13:05.097Z,41.93
2019-02-17T20:15:12.788Z,37.27
2019-02-17T20:17:20.678Z,33.97
2019-02-17T20:19:28.543Z,33.03
2019-02-17T20:21:36.249Z,32.80
2019-02-17T20:23:44.104Z,33.83
2019-02-17T20:25:52.130Z,33.50
2019-02-17T20:28:00.267Z,32.33
2019-02-17T20:30:08.714Z,35.60
2019-02-17T20:32:16.662Z,32.70
2019-02-17T20:34:25.522Z,40.70
2019-02-17T20:36:33.815Z,36.73
2019-02-17T20:38:41.912Z,52.83
2019-02-17T20:40:49.823Z,38.03
2019-02-17T20:42:57.324Z,83.73
2019-02-17T20:45:05.767Z,44.53
2019-02-17T20:47:13.872Z,45.43
2019-02-17T20:49:21.813Z,44.80
2019-02-17T20:51:29.672Z,45.97
2019-02-17T20:53:37.466Z,47.90
2019-02-17T20:55:45.479Z,46.43
2019-02-17T20:57:53.273Z,41.40
2019-02-17T21:00:01.251Z,41.60
2019-02-17T21:02:09.123Z,40.27
2019-02-17T21:04:17.290Z,41.43
2019-02-17T21:06:25.652Z,42.27
2019-02-17T21:08:33.501Z,47.63
2019-02-17T21:10:41.394Z,44.53
2019-02-17T21:12:49.524Z,45.17
2019-02-17T21:14:57.156Z,44.10
2019-02-17T21:17:06.893Z,45.07
2019-02-17T21:19:14.716Z,43.90
2019-02-17T21:21:23.143Z,45.93
2019-02-17T21:23:31.155Z,50.33
2019-02-17T21:25:39.314Z,52.50
2019-02-17T21:27:47.318Z,48.30
2019-02-17T21:29:55.217Z,49.20
2019-02-17T21:32:03.063Z,55.50
2019-02-17T21:34:11.023Z,56.73
2019-02-17T21:36:23.229Z,52.60
2019-02-17T21:38:28.731Z,47.87
2019-02-17T21:40:36.649Z,49.10
2019-02-17T21:42:44.951Z,39.73
2019-02-17T21:44:52.766Z,35.17
2019-02-17T21:47:00.528Z,33.40
2019-02-17T21:49:08.621Z,33.37
2019-02-17T21:51:16.774Z,31.53
2019-02-17T21:53:24.696Z,31.87
2019-02-17T21:55:32.789Z,30.97
2019-02-17T21:57:42.226Z,30.43
2019-02-17T21:59:50.120Z,29.27
2019-02-17T22:01:58.013Z,29.00
2019-02-17T22:04:06.045Z,27.57
2019-02-17T22:06:14.011Z,29.40
2019-02-17T22:08:21.731Z,27.03
2019-02-17T22:10:29.298Z,28.13
2019-02-17T22:12:37.302Z,29.03
2019-02-17T22:14:45.115Z,29.00
2019-02-17T22:16:52.933Z,30.47
2019-02-17T22:19:01.189Z,29.17
2019-02-17T22:21:08.916Z,30.97
2019-02-17T22:23:16.559Z,30.77
2019-02-17T22:25:24.511Z,31.33
2019-02-17T22:27:32.391Z,31.67
2019-02-17T22:29:40.076Z,32.30
2019-02-17T22:31:48.405Z,31.87
2019-02-17T22:33:56.107Z,33.57
2019-02-17T22:36:03.845Z,34.43
2019-02-17T22:38:11.603Z,34.40
2019-02-17T22:40:19.370Z,34.67
2019-02-17T22:42:27.137Z,35.93
2019-02-17T22:44:34.943Z,36.70
2019-02-17T22:46:42.731Z,34.70
2019-02-17T22:48:50.497Z,33.10
2019-02-17T22:50:58.345Z,34.27
2019-02-17T22:53:05.999Z,34.03
2019-02-17T22:55:14.092Z,33.20
2019-02-17T22:57:22.080Z,32.93
2019-02-17T22:59:29.786Z,35.20
2019-02-17T23:01:37.639Z,34.47
2019-02-17T23:03:45.478Z,37.23
2019-02-17T23:05:53.279Z,41.43
2019-02-17T23:08:01.000Z,39.03
2019-02-17T23:10:09.187Z,36.57
2019-02-17T23:12:17.504Z,35.37
2019-02-17T23:14:25.227Z,36.23
2019-02-17T23:16:32.763Z,35.97
2019-02-17T23:18:40.428Z,38.77
2019-02-17T23:20:48.095Z,41.20
2019-02-17T23:22:55.757Z,103.23
2019-02-17T23:25:05.202Z,63.60
2019-02-17T23:27:13.239Z,41.50
2019-02-17T23:29:21.072Z,40.50
2019-02-17T23:31:28.872Z,66.87
2019-02-17T23:33:36.685Z,64.90
2019-02-17T23:35:44.526Z,57.27
2019-02-17T23:37:52.251Z,56.77
2019-02-17T23:40:00.090Z,51.07
2019-02-17T23:42:07.967Z,70.57
2019-02-17T23:44:15.705Z,52.33
2019-02-17T23:46:23.486Z,44.57
2019-02-17T23:48:31.209Z,37.20
2019-02-17T23:50:38.919Z,36.40
2019-02-17T23:52:46.685Z,42.77
2019-02-17T23:54:54.357Z,38.17
2019-02-17T23:57:01.836Z,39.00
2019-02-17T23:59:09.743Z,42.60
